sensor_id;sensor_type;location;lat;lon;timestamp;temperature;humidity
32522;DHT22;18963;51.504;5.316;2023-04-24T00:00:28;9.40;99.90
32522;DHT22;18963;51.504;5.316;2023-04-24T00:02:53;9.40;99.90
32522;DHT22;18963;51.504;5.316;2023-04-24T00:05:22;9.40;99.90
32522;DHT22;18963;51.504;5.316;2023-04-24T00:07:48;9.30;99.90
32522;DHT22;18963;51.504;5.316;2023-04-24T00:10:13;9.40;99.90
32522;DHT22;18963;51.504;5.316;2023-04-24T00:12:39;9.40;99.90
32522;DHT22;18963;51.504;5.316;2023-04-24T00:15:04;9.40;99.90
32522;DHT22;18963;51.504;5.316;2023-04-24T00:17:30;9.40;99.90
32522;DHT22;18963;51.504;5.316;2023-04-24T00:19:56;9.30;99.90
32522;DHT22;18963;51.504;5.316;2023-04-24T00:22:24;9.40;99.90
32522;DHT22;18963;51.504;5.316;2023-04-24T00:24:49;9.30;99.90
32522;DHT22;18963;51.504;5.316;2023-04-24T00:27:15;9.30;99.90
32522;DHT22;18963;51.504;5.316;2023-04-24T00:29:40;9.30;99.90
32522;DHT22;18963;51.504;5.316;2023-04-24T00:32:06;9.30;99.90
32522;DHT22;18963;51.504;5.316;2023-04-24T00:34:31;9.20;99.90
32522;DHT22;18963;51.504;5.316;2023-04-24T00:36:57;9.20;99.90
32522;DHT22;18963;51.504;5.316;2023-04-24T00:39:23;9.20;99.90
32522;DHT22;18963;51.504;5.316;2023-04-24T00:41:49;9.20;99.90
32522;DHT22;18963;51.504;5.316;2023-04-24T00:44:16;9.20;99.90
32522;DHT22;18963;51.504;5.316;2023-04-24T00:46:42;9.20;99.90
32522;DHT22;18963;51.504;5.316;2023-04-24T00:49:07;9.20;99.90
32522;DHT22;18963;51.504;5.316;2023-04-24T00:51:33;9.20;99.90
32522;DHT22;18963;51.504;5.316;2023-04-24T00:53:58;9.20;99.90
32522;DHT22;18963;51.504;5.316;2023-04-24T00:56:24;9.20;99.90
32522;DHT22;18963;51.504;5.316;2023-04-24T00:58:50;9.20;99.90
32522;DHT22;18963;51.504;5.316;2023-04-24T01:01:16;9.20;99.90
32522;DHT22;18963;51.504;5.316;2023-04-24T01:03:42;9.20;99.90
32522;DHT22;18963;51.504;5.316;2023-04-24T01:06:07;9.20;99.90
32522;DHT22;18963;51.504;5.316;2023-04-24T01:08:34;9.10;99.90
32522;DHT22;18963;51.504;5.316;2023-04-24T01:11:01;9.10;99.90
32522;DHT22;18963;51.504;5.316;2023-04-24T01:13:28;9.10;99.90
32522;DHT22;18963;51.504;5.316;2023-04-24T01:15:54;9.10;99.90
32522;DHT22;18963;51.504;5.316;2023-04-24T01:18:19;9.10;99.90
32522;DHT22;18963;51.504;5.316;2023-04-24T01:20:46;9.00;99.90
32522;DHT22;18963;51.504;5.316;2023-04-24T01:23:12;9.00;99.90
32522;DHT22;18963;51.504;5.316;2023-04-24T01:25:37;9.00;99.90
32522;DHT22;18963;51.504;5.316;2023-04-24T01:28:03;9.00;99.90
32522;DHT22;18963;51.504;5.316;2023-04-24T01:30:29;9.00;99.90
32522;DHT22;18963;51.504;5.316;2023-04-24T01:32:54;9.00;99.90
32522;DHT22;18963;51.504;5.316;2023-04-24T01:35:20;9.00;99.90
32522;DHT22;18963;51.504;5.316;2023-04-24T01:37:46;9.00;99.90
32522;DHT22;18963;51.504;5.316;2023-04-24T01:40:11;8.90;99.90
32522;DHT22;18963;51.504;5.316;2023-04-24T01:42:37;8.90;99.90
32522;DHT22;18963;51.504;5.316;2023-04-24T01:45:03;8.90;99.90
32522;DHT22;18963;51.504;5.316;2023-04-24T01:47:29;8.90;99.90
32522;DHT22;18963;51.504;5.316;2023-04-24T01:49:55;8.90;99.90
32522;DHT22;18963;51.504;5.316;2023-04-24T01:52:21;8.90;99.90
32522;DHT22;18963;51.504;5.316;2023-04-24T01:54:46;8.90;99.90
32522;DHT22;18963;51.504;5.316;2023-04-24T01:57:13;8.90;99.90
32522;DHT22;18963;51.504;5.316;2023-04-24T01:59:38;8.90;99.90
32522;DHT22;18963;51.504;5.316;2023-04-24T02:02:04;8.90;99.90
32522;DHT22;18963;51.504;5.316;2023-04-24T02:04:30;8.80;99.90
32522;DHT22;18963;51.504;5.316;2023-04-24T02:06:55;8.80;99.90
32522;DHT22;18963;51.504;5.316;2023-04-24T02:09:21;8.80;99.90
32522;DHT22;18963;51.504;5.316;2023-04-24T02:11:46;8.80;99.90
32522;DHT22;18963;51.504;5.316;2023-04-24T02:14:12;8.80;99.90
32522;DHT22;18963;51.504;5.316;2023-04-24T02:16:37;8.70;99.90
32522;DHT22;18963;51.504;5.316;2023-04-24T02:19:03;8.70;99.90
32522;DHT22;18963;51.504;5.316;2023-04-24T02:21:28;8.70;99.90
32522;DHT22;18963;51.504;5.316;2023-04-24T02:23:54;8.70;99.90
32522;DHT22;18963;51.504;5.316;2023-04-24T02:26:19;8.70;99.90
32522;DHT22;18963;51.504;5.316;2023-04-24T02:28:45;8.60;99.90
32522;DHT22;18963;51.504;5.316;2023-04-24T02:31:10;8.60;99.90
32522;DHT22;18963;51.504;5.316;2023-04-24T02:33:36;8.50;99.90
32522;DHT22;18963;51.504;5.316;2023-04-24T02:36:02;8.60;99.90
32522;DHT22;18963;51.504;5.316;2023-04-24T02:38:28;8.50;99.90
32522;DHT22;18963;51.504;5.316;2023-04-24T02:40:53;8.50;99.90
32522;DHT22;18963;51.504;5.316;2023-04-24T02:43:19;8.50;99.90
32522;DHT22;18963;51.504;5.316;2023-04-24T02:45:45;8.50;99.90
32522;DHT22;18963;51.504;5.316;2023-04-24T02:48:11;8.50;99.90
32522;DHT22;18963;51.504;5.316;2023-04-24T02:50:36;8.50;99.90
32522;DHT22;18963;51.504;5.316;2023-04-24T02:53:02;8.40;99.90
32522;DHT22;18963;51.504;5.316;2023-04-24T02:55:27;8.50;99.90
32522;DHT22;18963;51.504;5.316;2023-04-24T02:57:53;8.40;99.90
32522;DHT22;18963;51.504;5.316;2023-04-24T03:00:18;8.40;99.90
32522;DHT22;18963;51.504;5.316;2023-04-24T03:02:44;8.50;99.90
32522;DHT22;18963;51.504;5.316;2023-04-24T03:05:09;8.40;99.90
32522;DHT22;18963;51.504;5.316;2023-04-24T03:07:37;8.40;99.90
32522;DHT22;18963;51.504;5.316;2023-04-24T03:10:03;8.40;99.90
32522;DHT22;18963;51.504;5.316;2023-04-24T03:12:28;8.40;99.90
32522;DHT22;18963;51.504;5.316;2023-04-24T03:14:54;8.40;99.90
32522;DHT22;18963;51.504;5.316;2023-04-24T03:17:19;8.40;99.90
32522;DHT22;18963;51.504;5.316;2023-04-24T03:19:45;8.40;99.90
32522;DHT22;18963;51.504;5.316;2023-04-24T03:22:10;8.40;99.90
32522;DHT22;18963;51.504;5.316;2023-04-24T03:24:36;8.40;99.90
32522;DHT22;18963;51.504;5.316;2023-04-24T03:27:01;8.40;99.90
32522;DHT22;18963;51.504;5.316;2023-04-24T03:29:27;8.40;99.90
32522;DHT22;18963;51.504;5.316;2023-04-24T03:31:52;8.40;99.90
32522;DHT22;18963;51.504;5.316;2023-04-24T03:34:18;8.40;99.90
32522;DHT22;18963;51.504;5.316;2023-04-24T03:36:43;8.40;99.90
32522;DHT22;18963;51.504;5.316;2023-04-24T03:39:09;8.40;99.90
32522;DHT22;18963;51.504;5.316;2023-04-24T03:41:35;8.40;99.90
32522;DHT22;18963;51.504;5.316;2023-04-24T03:44:00;8.40;99.90
32522;DHT22;18963;51.504;5.316;2023-04-24T03:46:26;8.40;99.90
32522;DHT22;18963;51.504;5.316;2023-04-24T03:48:51;8.40;99.90
32522;DHT22;18963;51.504;5.316;2023-04-24T03:51:17;8.40;99.90
32522;DHT22;18963;51.504;5.316;2023-04-24T03:53:42;8.40;99.90
32522;DHT22;18963;51.504;5.316;2023-04-24T03:56:08;8.40;99.90
32522;DHT22;18963;51.504;5.316;2023-04-24T03:58:33;8.40;99.90
32522;DHT22;18963;51.504;5.316;2023-04-24T04:00:59;8.40;99.90
32522;DHT22;18963;51.504;5.316;2023-04-24T04:03:25;8.40;99.90
32522;DHT22;18963;51.504;5.316;2023-04-24T04:05:51;8.40;99.90
32522;DHT22;18963;51.504;5.316;2023-04-24T04:08:16;8.40;99.90
32522;DHT22;18963;51.504;5.316;2023-04-24T04:10:42;8.40;99.90
32522;DHT22;18963;51.504;5.316;2023-04-24T04:13:07;8.40;99.90
32522;DHT22;18963;51.504;5.316;2023-04-24T04:15:32;8.40;99.90
32522;DHT22;18963;51.504;5.316;2023-04-24T04:17:58;8.40;99.90
32522;DHT22;18963;51.504;5.316;2023-04-24T04:20:23;8.40;99.90
32522;DHT22;18963;51.504;5.316;2023-04-24T04:22:49;8.40;99.90
32522;DHT22;18963;51.504;5.316;2023-04-24T04:25:15;8.40;99.90
32522;DHT22;18963;51.504;5.316;2023-04-24T04:27:41;8.40;99.90
32522;DHT22;18963;51.504;5.316;2023-04-24T04:30:07;8.40;99.90
32522;DHT22;18963;51.504;5.316;2023-04-24T04:32:33;8.30;99.90
32522;DHT22;18963;51.504;5.316;2023-04-24T04:34:59;8.30;99.90
32522;DHT22;18963;51.504;5.316;2023-04-24T04:37:34;8.30;99.90
32522;DHT22;18963;51.504;5.316;2023-04-24T04:40:00;8.30;99.90
32522;DHT22;18963;51.504;5.316;2023-04-24T04:42:26;8.30;99.90
32522;DHT22;18963;51.504;5.316;2023-04-24T04:44:52;8.30;99.90
32522;DHT22;18963;51.504;5.316;2023-04-24T04:47:18;8.30;99.90
32522;DHT22;18963;51.504;5.316;2023-04-24T04:49:46;8.30;99.90
32522;DHT22;18963;51.504;5.316;2023-04-24T04:52:13;8.30;99.90
32522;DHT22;18963;51.504;5.316;2023-04-24T04:54:38;8.30;99.90
32522;DHT22;18963;51.504;5.316;2023-04-24T04:57:04;8.30;99.90
32522;DHT22;18963;51.504;5.316;2023-04-24T04:59:30;8.30;99.90
32522;DHT22;18963;51.504;5.316;2023-04-24T05:01:55;8.30;99.90
32522;DHT22;18963;51.504;5.316;2023-04-24T05:04:22;8.30;99.90
32522;DHT22;18963;51.504;5.316;2023-04-24T05:06:47;8.30;99.90
32522;DHT22;18963;51.504;5.316;2023-04-24T05:09:13;8.40;99.90
32522;DHT22;18963;51.504;5.316;2023-04-24T05:11:39;8.40;99.90
32522;DHT22;18963;51.504;5.316;2023-04-24T05:14:04;8.40;99.90
32522;DHT22;18963;51.504;5.316;2023-04-24T05:16:30;8.40;99.90
32522;DHT22;18963;51.504;5.316;2023-04-24T05:18:56;8.40;99.90
32522;DHT22;18963;51.504;5.316;2023-04-24T05:21:21;8.40;99.90
32522;DHT22;18963;51.504;5.316;2023-04-24T05:23:47;8.40;99.90
32522;DHT22;18963;51.504;5.316;2023-04-24T05:26:13;8.30;99.90
32522;DHT22;18963;51.504;5.316;2023-04-24T05:28:38;8.30;99.90
32522;DHT22;18963;51.504;5.316;2023-04-24T05:31:04;8.30;99.90
32522;DHT22;18963;51.504;5.316;2023-04-24T05:33:29;8.30;99.90
32522;DHT22;18963;51.504;5.316;2023-04-24T05:35:55;8.20;99.90
32522;DHT22;18963;51.504;5.316;2023-04-24T05:38:21;8.20;99.90
32522;DHT22;18963;51.504;5.316;2023-04-24T05:40:46;8.20;99.90
32522;DHT22;18963;51.504;5.316;2023-04-24T05:43:12;8.20;99.90
32522;DHT22;18963;51.504;5.316;2023-04-24T05:45:38;8.20;99.90
32522;DHT22;18963;51.504;5.316;2023-04-24T05:48:03;8.20;99.90
32522;DHT22;18963;51.504;5.316;2023-04-24T05:50:29;8.10;99.90
32522;DHT22;18963;51.504;5.316;2023-04-24T05:52:55;8.10;99.90
32522;DHT22;18963;51.504;5.316;2023-04-24T05:55:23;8.10;99.90
32522;DHT22;18963;51.504;5.316;2023-04-24T05:57:49;8.10;99.90
32522;DHT22;18963;51.504;5.316;2023-04-24T06:00:15;8.10;99.90
32522;DHT22;18963;51.504;5.316;2023-04-24T06:02:41;8.10;99.90
32522;DHT22;18963;51.504;5.316;2023-04-24T06:05:06;8.10;99.90
32522;DHT22;18963;51.504;5.316;2023-04-24T06:07:33;8.10;99.90
32522;DHT22;18963;51.504;5.316;2023-04-24T06:09:59;8.10;99.90
32522;DHT22;18963;51.504;5.316;2023-04-24T06:12:26;8.10;99.90
32522;DHT22;18963;51.504;5.316;2023-04-24T06:14:52;8.10;99.90
32522;DHT22;18963;51.504;5.316;2023-04-24T06:17:18;8.10;99.90
32522;DHT22;18963;51.504;5.316;2023-04-24T06:19:43;8.10;99.90
32522;DHT22;18963;51.504;5.316;2023-04-24T06:22:09;8.10;99.90
32522;DHT22;18963;51.504;5.316;2023-04-24T06:24:35;8.00;99.90
32522;DHT22;18963;51.504;5.316;2023-04-24T06:27:00;8.10;99.90
32522;DHT22;18963;51.504;5.316;2023-04-24T06:29:26;8.00;99.90
32522;DHT22;18963;51.504;5.316;2023-04-24T06:31:52;8.10;99.90
32522;DHT22;18963;51.504;5.316;2023-04-24T06:34:17;8.10;99.90
32522;DHT22;18963;51.504;5.316;2023-04-24T06:36:43;8.10;99.90
32522;DHT22;18963;51.504;5.316;2023-04-24T06:39:08;8.10;99.90
32522;DHT22;18963;51.504;5.316;2023-04-24T06:41:34;8.10;99.90
32522;DHT22;18963;51.504;5.316;2023-04-24T06:44:00;8.10;99.90
32522;DHT22;18963;51.504;5.316;2023-04-24T06:46:25;8.00;99.90
32522;DHT22;18963;51.504;5.316;2023-04-24T06:48:53;8.00;99.90
32522;DHT22;18963;51.504;5.316;2023-04-24T06:56:41;8.00;99.90
32522;DHT22;18963;51.504;5.316;2023-04-24T06:59:06;8.00;99.90
32522;DHT22;18963;51.504;5.316;2023-04-24T07:01:32;8.00;99.90
32522;DHT22;18963;51.504;5.316;2023-04-24T07:03:57;8.00;99.90
32522;DHT22;18963;51.504;5.316;2023-04-24T07:06:23;8.00;99.90
32522;DHT22;18963;51.504;5.316;2023-04-24T07:08:49;8.00;99.90
32522;DHT22;18963;51.504;5.316;2023-04-24T07:11:15;8.00;99.90
32522;DHT22;18963;51.504;5.316;2023-04-24T07:13:41;8.00;99.90
32522;DHT22;18963;51.504;5.316;2023-04-24T07:16:09;8.00;99.90
32522;DHT22;18963;51.504;5.316;2023-04-24T07:18:35;8.00;99.90
32522;DHT22;18963;51.504;5.316;2023-04-24T07:21:02;8.00;99.90
32522;DHT22;18963;51.504;5.316;2023-04-24T07:23:27;8.00;99.90
32522;DHT22;18963;51.504;5.316;2023-04-24T07:25:53;8.10;99.90
32522;DHT22;18963;51.504;5.316;2023-04-24T07:28:18;8.10;99.90
32522;DHT22;18963;51.504;5.316;2023-04-24T07:30:44;8.10;99.90
32522;DHT22;18963;51.504;5.316;2023-04-24T07:33:10;8.10;99.90
32522;DHT22;18963;51.504;5.316;2023-04-24T07:35:38;8.00;99.90
32522;DHT22;18963;51.504;5.316;2023-04-24T07:38:03;7.90;99.90
32522;DHT22;18963;51.504;5.316;2023-04-24T07:40:30;7.90;99.90
32522;DHT22;18963;51.504;5.316;2023-04-24T07:42:55;7.90;99.90
32522;DHT22;18963;51.504;5.316;2023-04-24T07:45:21;7.90;99.90
32522;DHT22;18963;51.504;5.316;2023-04-24T07:47:48;7.90;99.90
32522;DHT22;18963;51.504;5.316;2023-04-24T07:50:13;7.90;99.90
32522;DHT22;18963;51.504;5.316;2023-04-24T07:52:39;7.90;99.90
32522;DHT22;18963;51.504;5.316;2023-04-24T07:55:05;7.90;99.90
32522;DHT22;18963;51.504;5.316;2023-04-24T07:57:30;7.90;99.90
32522;DHT22;18963;51.504;5.316;2023-04-24T07:59:56;8.00;99.90
32522;DHT22;18963;51.504;5.316;2023-04-24T08:02:21;8.00;99.90
32522;DHT22;18963;51.504;5.316;2023-04-24T08:04:52;8.00;99.90
32522;DHT22;18963;51.504;5.316;2023-04-24T08:07:18;8.00;99.90
32522;DHT22;18963;51.504;5.316;2023-04-24T08:09:44;8.00;99.90
32522;DHT22;18963;51.504;5.316;2023-04-24T08:12:09;8.10;99.90
32522;DHT22;18963;51.504;5.316;2023-04-24T08:14:35;8.10;99.90
32522;DHT22;18963;51.504;5.316;2023-04-24T08:17:00;8.10;99.90
32522;DHT22;18963;51.504;5.316;2023-04-24T08:19:26;8.10;99.90
32522;DHT22;18963;51.504;5.316;2023-04-24T08:21:52;8.20;99.90
32522;DHT22;18963;51.504;5.316;2023-04-24T08:24:17;8.20;99.90
32522;DHT22;18963;51.504;5.316;2023-04-24T08:26:43;8.20;99.90
32522;DHT22;18963;51.504;5.316;2023-04-24T08:29:08;8.20;99.90
32522;DHT22;18963;51.504;5.316;2023-04-24T08:31:34;8.20;99.90
32522;DHT22;18963;51.504;5.316;2023-04-24T08:34:00;8.20;99.90
32522;DHT22;18963;51.504;5.316;2023-04-24T08:36:26;8.20;99.90
32522;DHT22;18963;51.504;5.316;2023-04-24T08:38:52;8.30;99.90
32522;DHT22;18963;51.504;5.316;2023-04-24T08:41:18;8.30;99.90
32522;DHT22;18963;51.504;5.316;2023-04-24T08:43:45;8.30;99.90
32522;DHT22;18963;51.504;5.316;2023-04-24T08:46:13;8.30;99.90
32522;DHT22;18963;51.504;5.316;2023-04-24T08:48:39;8.40;99.90
32522;DHT22;18963;51.504;5.316;2023-04-24T08:51:09;8.50;99.90
32522;DHT22;18963;51.504;5.316;2023-04-24T08:53:35;8.60;99.90
32522;DHT22;18963;51.504;5.316;2023-04-24T08:56:01;8.70;99.90
32522;DHT22;18963;51.504;5.316;2023-04-24T08:58:27;8.70;99.90
32522;DHT22;18963;51.504;5.316;2023-04-24T09:00:56;8.60;99.90
32522;DHT22;18963;51.504;5.316;2023-04-24T09:03:22;8.50;99.90
32522;DHT22;18963;51.504;5.316;2023-04-24T09:05:48;8.40;99.90
32522;DHT22;18963;51.504;5.316;2023-04-24T09:08:16;8.40;99.90
32522;DHT22;18963;51.504;5.316;2023-04-24T09:10:42;8.40;99.90
32522;DHT22;18963;51.504;5.316;2023-04-24T09:13:08;8.40;99.90
32522;DHT22;18963;51.504;5.316;2023-04-24T09:15:36;8.40;99.90
32522;DHT22;18963;51.504;5.316;2023-04-24T09:18:03;8.50;99.90
32522;DHT22;18963;51.504;5.316;2023-04-24T09:20:29;8.60;99.90
32522;DHT22;18963;51.504;5.316;2023-04-24T09:22:54;8.70;99.90
32522;DHT22;18963;51.504;5.316;2023-04-24T09:25:21;8.80;99.90
32522;DHT22;18963;51.504;5.316;2023-04-24T09:27:47;8.90;99.90
32522;DHT22;18963;51.504;5.316;2023-04-24T09:30:13;8.90;99.90
32522;DHT22;18963;51.504;5.316;2023-04-24T09:32:39;8.80;99.90
32522;DHT22;18963;51.504;5.316;2023-04-24T09:35:14;8.70;99.90
32522;DHT22;18963;51.504;5.316;2023-04-24T09:37:49;8.60;99.90
32522;DHT22;18963;51.504;5.316;2023-04-24T09:40:19;8.50;99.90
32522;DHT22;18963;51.504;5.316;2023-04-24T09:42:55;8.50;99.90
32522;DHT22;18963;51.504;5.316;2023-04-24T09:45:36;8.50;99.90
32522;DHT22;18963;51.504;5.316;2023-04-24T09:48:02;8.50;99.90
32522;DHT22;18963;51.504;5.316;2023-04-24T09:50:30;8.60;99.90
32522;DHT22;18963;51.504;5.316;2023-04-24T09:53:05;8.70;99.90
32522;DHT22;18963;51.504;5.316;2023-04-24T09:55:31;8.80;99.90
32522;DHT22;18963;51.504;5.316;2023-04-24T10:00:26;9.20;99.90
32522;DHT22;18963;51.504;5.316;2023-04-24T10:03:05;9.50;99.90
32522;DHT22;18963;51.504;5.316;2023-04-24T10:05:33;9.90;99.90
32522;DHT22;18963;51.504;5.316;2023-04-24T10:08:09;10.20;99.90
32522;DHT22;18963;51.504;5.316;2023-04-24T10:10:39;10.30;99.90
32522;DHT22;18963;51.504;5.316;2023-04-24T10:13:05;10.50;99.90
32522;DHT22;18963;51.504;5.316;2023-04-24T10:15:33;10.50;99.90
32522;DHT22;18963;51.504;5.316;2023-04-24T10:17:59;10.40;99.90
32522;DHT22;18963;51.504;5.316;2023-04-24T10:20:27;10.40;99.90
32522;DHT22;18963;51.504;5.316;2023-04-24T10:22:56;10.30;99.90
32522;DHT22;18963;51.504;5.316;2023-04-24T10:25:25;10.10;99.90
32522;DHT22;18963;51.504;5.316;2023-04-24T10:27:52;9.90;99.90
32522;DHT22;18963;51.504;5.316;2023-04-24T10:30:19;9.70;99.90
32522;DHT22;18963;51.504;5.316;2023-04-24T10:32:45;9.60;99.90
32522;DHT22;18963;51.504;5.316;2023-04-24T10:35:11;9.60;99.90
32522;DHT22;18963;51.504;5.316;2023-04-24T10:37:49;9.50;99.90
32522;DHT22;18963;51.504;5.316;2023-04-24T10:40:18;9.50;99.90
32522;DHT22;18963;51.504;5.316;2023-04-24T10:42:47;9.60;99.90
32522;DHT22;18963;51.504;5.316;2023-04-24T10:45:17;9.70;99.90
32522;DHT22;18963;51.504;5.316;2023-04-24T10:47:51;9.80;99.90
32522;DHT22;18963;51.504;5.316;2023-04-24T10:50:17;10.00;99.90
32522;DHT22;18963;51.504;5.316;2023-04-24T10:52:46;10.10;99.90
32522;DHT22;18963;51.504;5.316;2023-04-24T10:55:13;10.20;99.90
32522;DHT22;18963;51.504;5.316;2023-04-24T10:57:39;10.30;99.90
32522;DHT22;18963;51.504;5.316;2023-04-24T11:00:15;10.50;99.90
32522;DHT22;18963;51.504;5.316;2023-04-24T11:02:41;10.50;99.90
32522;DHT22;18963;51.504;5.316;2023-04-24T11:05:15;10.50;99.90
32522;DHT22;18963;51.504;5.316;2023-04-24T11:08:13;10.40;99.90
32522;DHT22;18963;51.504;5.316;2023-04-24T11:10:58;10.40;99.90
32522;DHT22;18963;51.504;5.316;2023-04-24T11:13:26;10.30;99.90
32522;DHT22;18963;51.504;5.316;2023-04-24T11:19:09;10.30;99.90
32522;DHT22;18963;51.504;5.316;2023-04-24T11:21:49;10.10;99.90
32522;DHT22;18963;51.504;5.316;2023-04-24T11:27:17;10.00;99.90
32522;DHT22;18963;51.504;5.316;2023-04-24T11:32:23;9.80;99.90
32522;DHT22;18963;51.504;5.316;2023-04-24T11:34:54;9.80;99.90
32522;DHT22;18963;51.504;5.316;2023-04-24T11:37:21;9.80;99.90
32522;DHT22;18963;51.504;5.316;2023-04-24T11:39:49;9.90;99.90
32522;DHT22;18963;51.504;5.316;2023-04-24T11:42:15;9.90;99.90
32522;DHT22;18963;51.504;5.316;2023-04-24T11:44:41;9.90;99.90
32522;DHT22;18963;51.504;5.316;2023-04-24T11:47:08;10.00;99.90
32522;DHT22;18963;51.504;5.316;2023-04-24T11:49:36;10.10;99.90
32522;DHT22;18963;51.504;5.316;2023-04-24T11:52:02;10.20;99.90
32522;DHT22;18963;51.504;5.316;2023-04-24T11:54:28;10.30;99.90
32522;DHT22;18963;51.504;5.316;2023-04-24T11:56:54;10.40;99.90
32522;DHT22;18963;51.504;5.316;2023-04-24T11:59:19;10.50;99.90
32522;DHT22;18963;51.504;5.316;2023-04-24T12:01:45;10.60;99.90
32522;DHT22;18963;51.504;5.316;2023-04-24T12:04:11;10.60;99.90
32522;DHT22;18963;51.504;5.316;2023-04-24T12:06:37;10.70;99.90
32522;DHT22;18963;51.504;5.316;2023-04-24T12:09:03;10.80;99.90
32522;DHT22;18963;51.504;5.316;2023-04-24T12:11:28;10.90;99.90
32522;DHT22;18963;51.504;5.316;2023-04-24T12:13:54;11.00;99.90
32522;DHT22;18963;51.504;5.316;2023-04-24T12:16:20;11.20;99.90
32522;DHT22;18963;51.504;5.316;2023-04-24T12:18:45;11.20;99.90
32522;DHT22;18963;51.504;5.316;2023-04-24T12:23:43;11.20;99.90
32522;DHT22;18963;51.504;5.316;2023-04-24T12:26:10;11.20;99.90
32522;DHT22;18963;51.504;5.316;2023-04-24T12:28:36;11.30;99.90
32522;DHT22;18963;51.504;5.316;2023-04-24T12:31:02;11.40;99.90
32522;DHT22;18963;51.504;5.316;2023-04-24T12:33:33;11.50;99.90
32522;DHT22;18963;51.504;5.316;2023-04-24T12:35:59;11.50;99.90
32522;DHT22;18963;51.504;5.316;2023-04-24T12:38:28;11.60;99.90
32522;DHT22;18963;51.504;5.316;2023-04-24T12:41:09;11.70;99.90
32522;DHT22;18963;51.504;5.316;2023-04-24T12:43:36;11.80;99.90
32522;DHT22;18963;51.504;5.316;2023-04-24T12:46:02;11.80;99.90
32522;DHT22;18963;51.504;5.316;2023-04-24T12:48:28;11.80;99.90
32522;DHT22;18963;51.504;5.316;2023-04-24T12:50:54;12.10;99.90
32522;DHT22;18963;51.504;5.316;2023-04-24T12:53:22;12.30;99.90
32522;DHT22;18963;51.504;5.316;2023-04-24T12:55:47;12.50;99.90
32522;DHT22;18963;51.504;5.316;2023-04-24T12:58:19;12.60;99.90
32522;DHT22;18963;51.504;5.316;2023-04-24T13:00:46;12.70;99.90
32522;DHT22;18963;51.504;5.316;2023-04-24T13:03:12;12.50;99.90
32522;DHT22;18963;51.504;5.316;2023-04-24T13:05:38;12.30;99.90
32522;DHT22;18963;51.504;5.316;2023-04-24T13:08:03;12.00;99.90
32522;DHT22;18963;51.504;5.316;2023-04-24T13:10:29;11.80;99.90
32522;DHT22;18963;51.504;5.316;2023-04-24T13:12:55;11.60;99.90
32522;DHT22;18963;51.504;5.316;2023-04-24T13:15:21;11.40;99.90
32522;DHT22;18963;51.504;5.316;2023-04-24T13:17:46;11.20;99.90
32522;DHT22;18963;51.504;5.316;2023-04-24T13:20:12;11.10;99.90
32522;DHT22;18963;51.504;5.316;2023-04-24T13:22:37;10.80;99.90
32522;DHT22;18963;51.504;5.316;2023-04-24T13:25:03;10.50;99.90
32522;DHT22;18963;51.504;5.316;2023-04-24T13:27:31;10.30;99.90
32522;DHT22;18963;51.504;5.316;2023-04-24T13:29:56;10.20;99.90
32522;DHT22;18963;51.504;5.316;2023-04-24T13:32:22;10.10;99.90
32522;DHT22;18963;51.504;5.316;2023-04-24T13:34:47;10.10;99.90
32522;DHT22;18963;51.504;5.316;2023-04-24T13:37:13;10.20;99.90
32522;DHT22;18963;51.504;5.316;2023-04-24T13:39:39;10.30;99.90
32522;DHT22;18963;51.504;5.316;2023-04-24T13:42:06;10.50;99.90
32522;DHT22;18963;51.504;5.316;2023-04-24T13:44:32;10.70;99.90
32522;DHT22;18963;51.504;5.316;2023-04-24T13:46:58;10.90;99.90
32522;DHT22;18963;51.504;5.316;2023-04-24T13:49:25;11.00;99.90
32522;DHT22;18963;51.504;5.316;2023-04-24T13:51:52;10.90;99.90
32522;DHT22;18963;51.504;5.316;2023-04-24T13:54:17;10.90;99.90
32522;DHT22;18963;51.504;5.316;2023-04-24T13:56:43;10.80;99.90
32522;DHT22;18963;51.504;5.316;2023-04-24T13:59:09;10.60;99.90
32522;DHT22;18963;51.504;5.316;2023-04-24T14:01:35;10.60;99.90
32522;DHT22;18963;51.504;5.316;2023-04-24T14:04:00;10.60;99.90
32522;DHT22;18963;51.504;5.316;2023-04-24T14:06:26;10.50;99.90
32522;DHT22;18963;51.504;5.316;2023-04-24T14:08:52;10.40;99.90
32522;DHT22;18963;51.504;5.316;2023-04-24T14:11:18;10.20;99.90
32522;DHT22;18963;51.504;5.316;2023-04-24T14:13:44;10.10;99.90
32522;DHT22;18963;51.504;5.316;2023-04-24T14:16:10;10.00;99.90
32522;DHT22;18963;51.504;5.316;2023-04-24T14:18:36;9.90;99.90
32522;DHT22;18963;51.504;5.316;2023-04-24T14:21:02;9.90;99.90
32522;DHT22;18963;51.504;5.316;2023-04-24T14:23:28;9.80;99.90
32522;DHT22;18963;51.504;5.316;2023-04-24T14:25:53;9.80;99.90
32522;DHT22;18963;51.504;5.316;2023-04-24T14:28:20;9.90;99.90
32522;DHT22;18963;51.504;5.316;2023-04-24T14:30:46;9.90;99.90
32522;DHT22;18963;51.504;5.316;2023-04-24T14:33:12;10.00;99.90
32522;DHT22;18963;51.504;5.316;2023-04-24T14:35:38;10.20;99.90
32522;DHT22;18963;51.504;5.316;2023-04-24T14:38:05;10.40;99.90
32522;DHT22;18963;51.504;5.316;2023-04-24T14:40:31;10.60;99.90
32522;DHT22;18963;51.504;5.316;2023-04-24T14:42:57;10.80;99.90
32522;DHT22;18963;51.504;5.316;2023-04-24T14:45:24;10.90;99.90
32522;DHT22;18963;51.504;5.316;2023-04-24T14:47:49;10.90;99.90
32522;DHT22;18963;51.504;5.316;2023-04-24T14:50:15;10.90;99.90
32522;DHT22;18963;51.504;5.316;2023-04-24T14:52:41;10.80;99.90
32522;DHT22;18963;51.504;5.316;2023-04-24T14:55:06;10.80;99.90
32522;DHT22;18963;51.504;5.316;2023-04-24T14:57:33;10.80;99.90
32522;DHT22;18963;51.504;5.316;2023-04-24T15:00:00;10.80;99.90
32522;DHT22;18963;51.504;5.316;2023-04-24T15:02:25;10.80;99.90
32522;DHT22;18963;51.504;5.316;2023-04-24T15:04:51;10.70;99.90
32522;DHT22;18963;51.504;5.316;2023-04-24T15:07:16;10.70;99.90
32522;DHT22;18963;51.504;5.316;2023-04-24T15:09:42;10.70;99.90
32522;DHT22;18963;51.504;5.316;2023-04-24T15:12:08;10.70;99.90
32522;DHT22;18963;51.504;5.316;2023-04-24T15:14:35;10.70;99.90
32522;DHT22;18963;51.504;5.316;2023-04-24T15:17:00;10.70;99.90
32522;DHT22;18963;51.504;5.316;2023-04-24T15:19:26;10.70;99.90
32522;DHT22;18963;51.504;5.316;2023-04-24T15:21:51;10.70;99.90
32522;DHT22;18963;51.504;5.316;2023-04-24T15:24:17;10.70;99.90
32522;DHT22;18963;51.504;5.316;2023-04-24T15:26:44;10.70;99.90
32522;DHT22;18963;51.504;5.316;2023-04-24T15:29:09;10.70;99.90
32522;DHT22;18963;51.504;5.316;2023-04-24T15:31:35;10.70;99.90
32522;DHT22;18963;51.504;5.316;2023-04-24T15:34:04;10.70;99.90
32522;DHT22;18963;51.504;5.316;2023-04-24T15:36:30;10.70;99.90
32522;DHT22;18963;51.504;5.316;2023-04-24T15:38:56;10.60;99.90
32522;DHT22;18963;51.504;5.316;2023-04-24T15:41:21;10.70;99.90
32522;DHT22;18963;51.504;5.316;2023-04-24T15:43:47;10.80;99.90
32522;DHT22;18963;51.504;5.316;2023-04-24T15:46:12;10.70;99.90
32522;DHT22;18963;51.504;5.316;2023-04-24T15:48:38;10.70;99.90
32522;DHT22;18963;51.504;5.316;2023-04-24T15:51:06;10.70;99.90
32522;DHT22;18963;51.504;5.316;2023-04-24T15:53:32;10.70;99.90
32522;DHT22;18963;51.504;5.316;2023-04-24T15:55:57;10.80;99.90